aviador You're here:

LYNI Decoded Metar

NIS in SERBIA
Report Time2017-10-22 17:00:00
UTC Time2017-10-22 17:22:37
Flight Rules vfr VFR
Wind080° at 03 kt
W.Decomp.*RWY 11: 2.5 kt HW 1.6 kt LCW
W.Rank080° ranks 8
Current wind is below 080° avg. (5.2)
Visibility9999 m
Phenomena:N/A
Clouds:N/A
Expected CloudBase > 3,200 ft AGL from Temp-Dew spread
CeilingNone
Temp16°C (ISA +2)
Dew Point08°C (59% RH)
AAT14.5°C
QNH1012 hPa
Density Alt1,119 ft
Elevation663 ft
Report Wrong Elevation
Raw Report
LYNI 221700Z 08003KT CAVOK 16/08 Q1012 NOSIG=

Extra information for LYNI:More info

Metar Taf Metar & Taf Last 4 Metars F.Rules Stats Wind Profile Meteogram Temp Stats Airport Information Weather charts Add Link Nearby VenuesMetar ALERT Operation Metar Decoded Social comments